createdAt,value
2022-10-30T00:00:55.741Z,6.43
2022-10-30T00:03:23.456Z,8.93
2022-10-30T00:05:52.697Z,6.90
2022-10-30T00:08:22.789Z,7.55
2022-10-30T00:10:51.981Z,6.70
2022-10-30T00:13:21.303Z,6.55
2022-10-30T00:15:50.537Z,6.85
2022-10-30T00:18:18.710Z,6.25
2022-10-30T00:20:46.520Z,6.47
2022-10-30T00:23:14.975Z,6.47
2022-10-30T00:25:42.625Z,6.35
2022-10-30T00:28:11.733Z,6.20
2022-10-30T00:30:39.412Z,6.60
2022-10-30T00:33:07.097Z,6.70
2022-10-30T00:35:34.855Z,7.38
2022-10-30T00:38:02.756Z,7.22
2022-10-30T00:40:30.495Z,6.63
2022-10-30T00:42:58.159Z,6.95
2022-10-30T00:45:27.207Z,7.05
2022-10-30T00:47:59.561Z,7.43
2022-10-30T00:50:30.924Z,7.07
2022-10-30T00:53:01.836Z,6.93
2022-10-30T00:55:34.421Z,7.60
2022-10-30T00:58:07.713Z,7.28
2022-10-30T01:00:40.640Z,7.60
2022-10-30T01:03:08.666Z,6.90
2022-10-30T01:05:37.276Z,7.35
2022-10-30T01:08:05.054Z,7.95
2022-10-30T01:10:32.936Z,7.55
2022-10-30T01:13:01.797Z,7.55
2022-10-30T01:15:34.291Z,7.55
2022-10-30T01:18:20.126Z,8.38
2022-10-30T01:21:08.567Z,7.90
2022-10-30T01:23:45.985Z,8.73
2022-10-30T01:26:24.338Z,8.68
2022-10-30T01:29:05.005Z,9.00
2022-10-30T01:31:46.772Z,10.13
2022-10-30T01:34:20.959Z,10.07
2022-10-30T01:36:56.588Z,10.32
2022-10-30T01:39:26.716Z,10.13
2022-10-30T01:41:54.440Z,10.35
2022-10-30T01:44:26.657Z,10.23
2022-10-30T01:47:09.388Z,10.90
2022-10-30T01:50:03.590Z,10.05
2022-10-30T01:52:43.078Z,10.32
2022-10-30T01:55:22.088Z,9.65
2022-10-30T01:57:55.647Z,9.60
2022-10-30T02:00:23.724Z,9.55
2022-10-30T02:02:52.665Z,9.27
2022-10-30T02:05:28.918Z,10.15
2022-10-30T02:07:56.868Z,9.48
2022-10-30T02:10:24.910Z,8.95
2022-10-30T02:12:52.613Z,8.30
2022-10-30T02:15:20.606Z,8.05
2022-10-30T02:17:50.329Z,8.35
2022-10-30T02:20:20.679Z,8.05
2022-10-30T02:22:52.873Z,7.88
2022-10-30T02:25:23.926Z,7.60
2022-10-30T02:27:51.628Z,7.60
2022-10-30T02:30:19.393Z,7.57
2022-10-30T02:32:47.036Z,6.68
2022-10-30T02:35:14.948Z,7.93
2022-10-30T02:37:43.967Z,7.43
2022-10-30T02:40:12.456Z,7.35
2022-10-30T02:42:40.056Z,7.90
2022-10-30T02:45:08.882Z,7.50
2022-10-30T02:47:36.546Z,7.65
2022-10-30T02:50:04.383Z,8.77
2022-10-30T02:52:33.025Z,12.57
2022-10-30T02:55:02.055Z,8.60
2022-10-30T02:57:29.701Z,8.77
2022-10-30T02:59:57.361Z,13.10
2022-10-30T03:02:25.134Z,9.13
2022-10-30T03:04:52.866Z,7.95
2022-10-30T03:07:20.472Z,7.78
2022-10-30T03:09:48.501Z,8.10
2022-10-30T03:12:17.517Z,8.80
2022-10-30T03:14:45.567Z,8.20
2022-10-30T03:17:13.237Z,7.75
2022-10-30T03:19:41.785Z,8.18
2022-10-30T03:22:09.481Z,7.53
2022-10-30T03:24:38.183Z,8.40
2022-10-30T03:27:05.827Z,8.40
2022-10-30T03:29:34.850Z,7.45
2022-10-30T03:32:02.469Z,8.65
2022-10-30T03:34:30.114Z,8.50
2022-10-30T03:36:57.808Z,8.43
2022-10-30T03:39:25.534Z,8.15
2022-10-30T03:41:53.178Z,8.52
2022-10-30T03:44:20.789Z,8.45
2022-10-30T03:46:49.771Z,8.02
2022-10-30T03:49:17.464Z,8.57
2022-10-30T03:51:45.098Z,8.20
2022-10-30T03:54:12.727Z,8.18
2022-10-30T03:56:40.396Z,8.70
2022-10-30T03:59:08.007Z,9.15
2022-10-30T04:01:35.703Z,8.45
2022-10-30T04:04:04.995Z,9.02
2022-10-30T04:06:32.640Z,8.70
2022-10-30T04:09:00.294Z,8.50
2022-10-30T04:11:28.016Z,8.30
2022-10-30T04:13:55.788Z,9.25
2022-10-30T04:16:23.455Z,8.65
2022-10-30T04:18:51.121Z,8.63
2022-10-30T04:21:20.153Z,9.45
2022-10-30T04:23:47.843Z,13.00
2022-10-30T04:26:15.884Z,10.13
2022-10-30T04:28:43.531Z,13.90
2022-10-30T04:31:11.154Z,10.40
2022-10-30T04:33:38.831Z,10.77
2022-10-30T04:36:07.138Z,9.48
2022-10-30T04:38:36.194Z,9.52
2022-10-30T04:41:03.836Z,9.65
2022-10-30T04:43:31.477Z,9.18
2022-10-30T04:45:59.129Z,9.38
2022-10-30T04:48:27.353Z,8.40
2022-10-30T04:50:55.005Z,9.85
2022-10-30T04:53:22.665Z,9.43
2022-10-30T04:55:54.888Z,9.82
2022-10-30T04:58:22.546Z,9.25
2022-10-30T05:00:50.222Z,9.63
2022-10-30T05:03:20.728Z,9.25
2022-10-30T05:05:49.386Z,9.52
2022-10-30T05:08:18.107Z,8.20
2022-10-30T05:10:45.802Z,8.48
2022-10-30T05:13:14.833Z,10.07
2022-10-30T05:15:42.684Z,9.80
2022-10-30T05:18:10.331Z,8.30
2022-10-30T05:20:37.986Z,9.15
2022-10-30T05:23:05.981Z,9.13
2022-10-30T05:25:33.910Z,10.00
2022-10-30T05:28:02.417Z,9.48
2022-10-30T05:30:33.251Z,9.13
2022-10-30T05:33:01.762Z,9.43
2022-10-30T05:35:30.300Z,9.02
2022-10-30T05:37:57.948Z,9.32
2022-10-30T05:40:25.670Z,8.90
2022-10-30T05:42:53.729Z,8.60
2022-10-30T05:45:21.640Z,8.25
2022-10-30T05:47:57.988Z,7.40
2022-10-30T05:50:26.981Z,7.90
2022-10-30T05:52:56.784Z,7.68
2022-10-30T05:55:24.703Z,8.40
2022-10-30T05:57:57.227Z,9.27
2022-10-30T06:00:25.597Z,9.75
2022-10-30T06:02:53.385Z,8.43
2022-10-30T06:05:22.447Z,9.40
2022-10-30T06:07:50.083Z,8.75
2022-10-30T06:10:17.972Z,9.02
2022-10-30T06:12:53.557Z,8.65
2022-10-30T06:15:21.251Z,8.00
2022-10-30T06:17:48.922Z,9.60
2022-10-30T06:20:17.144Z,9.40
2022-10-30T06:22:54.585Z,9.38
2022-10-30T06:25:22.627Z,9.57
2022-10-30T06:27:50.350Z,9.35
2022-10-30T06:30:18.297Z,8.52
2022-10-30T06:32:45.923Z,8.75
2022-10-30T06:35:13.645Z,9.35
2022-10-30T06:37:47.161Z,8.30
2022-10-30T06:40:16.937Z,8.45
2022-10-30T06:42:45.688Z,7.63
2022-10-30T06:45:14.594Z,8.38
2022-10-30T06:47:42.898Z,8.55
2022-10-30T06:50:13.190Z,7.28
2022-10-30T06:52:41.062Z,9.05
2022-10-30T06:55:09.847Z,9.50
2022-10-30T06:57:39.151Z,8.48
2022-10-30T07:00:08.803Z,8.77
2022-10-30T07:02:36.497Z,8.82
2022-10-30T07:05:04.252Z,9.07
2022-10-30T07:07:31.935Z,8.98
2022-10-30T07:09:59.595Z,9.30
2022-10-30T07:12:27.240Z,8.95
2022-10-30T07:14:56.316Z,9.00
2022-10-30T07:17:23.992Z,9.05
2022-10-30T07:19:51.637Z,8.38
2022-10-30T07:22:19.666Z,8.43
2022-10-30T07:24:47.341Z,8.25
2022-10-30T07:27:15.012Z,9.23
2022-10-30T07:29:42.693Z,9.95
2022-10-30T07:32:14.156Z,10.90
2022-10-30T07:34:41.839Z,7.80
2022-10-30T07:37:09.519Z,10.18
2022-10-30T07:39:37.215Z,18.58
2022-10-30T07:42:05.104Z,14.40
2022-10-30T07:44:32.805Z,10.05
2022-10-30T07:47:00.482Z,9.10
2022-10-30T07:49:29.551Z,9.45
2022-10-30T07:51:57.220Z,8.95
2022-10-30T07:54:24.953Z,9.20
2022-10-30T07:56:52.618Z,8.38
2022-10-30T07:59:20.385Z,8.65
2022-10-30T08:01:49.842Z,10.18
2022-10-30T08:04:17.628Z,8.68
2022-10-30T08:06:46.791Z,8.40
2022-10-30T08:09:14.562Z,20.92
2022-10-30T08:11:42.275Z,21.42
2022-10-30T08:14:09.996Z,10.55
2022-10-30T08:16:37.658Z,8.32
2022-10-30T08:19:05.463Z,7.88
2022-10-30T08:21:33.549Z,7.93
2022-10-30T08:24:02.663Z,7.97
2022-10-30T08:26:30.426Z,7.28
2022-10-30T08:28:58.100Z,7.25
2022-10-30T08:31:25.773Z,7.38
2022-10-30T08:33:53.525Z,7.72
2022-10-30T08:36:21.190Z,7.28
2022-10-30T08:38:48.927Z,7.38
2022-10-30T08:41:18.032Z,7.50
2022-10-30T08:43:45.686Z,7.75
2022-10-30T08:46:13.343Z,7.65
2022-10-30T08:48:41.062Z,7.20
2022-10-30T08:51:08.835Z,7.45
2022-10-30T08:53:36.524Z,7.30
2022-10-30T08:56:05.261Z,7.38
2022-10-30T08:58:34.449Z,6.57
2022-10-30T09:01:02.305Z,6.70
2022-10-30T09:03:30.073Z,6.57
2022-10-30T09:05:59.244Z,6.38
2022-10-30T09:08:26.957Z,6.30
2022-10-30T09:10:55.937Z,6.68
2022-10-30T09:13:23.653Z,6.93
2022-10-30T09:15:54.907Z,7.43
2022-10-30T09:18:22.617Z,7.28
2022-10-30T09:20:50.631Z,6.82
2022-10-30T09:23:18.312Z,6.40
2022-10-30T09:25:45.996Z,6.35
2022-10-30T09:28:13.810Z,6.35
2022-10-30T09:30:41.608Z,6.18
2022-10-30T09:33:10.970Z,5.75
2022-10-30T09:35:38.615Z,5.55
2022-10-30T09:38:06.278Z,6.22
2022-10-30T09:40:49.474Z,6.25
2022-10-30T09:43:27.919Z,6.10
2022-10-30T09:46:16.823Z,6.10
2022-10-30T09:49:06.258Z,5.90
2022-10-30T09:52:09.192Z,6.00
2022-10-30T09:57:20.832Z,6.20
2022-10-30T10:00:00.217Z,6.13
2022-10-30T10:02:35.057Z,6.05
2022-10-30T10:05:15.122Z,5.85
2022-10-30T10:07:46.187Z,5.80
2022-10-30T10:10:20.862Z,5.60
2022-10-30T10:12:57.242Z,6.25
2022-10-30T10:15:39.342Z,6.07
2022-10-30T10:18:18.798Z,5.88
2022-10-30T10:20:51.741Z,5.30
2022-10-30T10:23:22.542Z,5.70
2022-10-30T10:25:54.512Z,5.70
2022-10-30T10:28:42.882Z,5.32
2022-10-30T10:31:23.367Z,5.80
2022-10-30T10:34:07.430Z,6.00
2022-10-30T10:36:45.267Z,5.88
2022-10-30T10:39:29.474Z,5.45
2022-10-30T10:42:10.306Z,5.50
2022-10-30T10:44:54.114Z,6.10
2022-10-30T10:47:54.188Z,5.70
2022-10-30T10:50:26.588Z,5.40
2022-10-30T10:55:29.815Z,5.50
2022-10-30T10:58:05.524Z,5.40
2022-10-30T11:00:33.614Z,5.40
2022-10-30T11:03:08.249Z,5.20
2022-10-30T11:05:40.649Z,5.40
2022-10-30T11:10:40.868Z,5.03
2022-10-30T11:13:12.621Z,5.22
2022-10-30T11:15:52.395Z,5.18
2022-10-30T11:18:20.063Z,5.45
2022-10-30T11:20:57.126Z,4.80
2022-10-30T11:23:42.141Z,4.85
2022-10-30T11:26:31.801Z,5.28
2022-10-30T11:29:03.537Z,5.40
2022-10-30T11:31:35.340Z,5.65
2022-10-30T11:34:24.323Z,5.22
2022-10-30T11:36:53.545Z,5.43
2022-10-30T11:39:25.017Z,5.40
2022-10-30T11:41:59.284Z,5.30
2022-10-30T11:44:31.660Z,5.22
2022-10-30T11:49:45.843Z,5.32
2022-10-30T11:52:16.469Z,5.63
2022-10-30T11:54:49.881Z,6.22
2022-10-30T11:57:24.386Z,6.80
2022-10-30T11:59:58.288Z,5.93
2022-10-30T12:02:31.318Z,6.00
2022-10-30T12:05:03.699Z,6.18
2022-10-30T12:07:32.898Z,6.78
2022-10-30T12:10:03.077Z,7.18
2022-10-30T12:12:34.778Z,6.80
2022-10-30T12:15:11.620Z,7.25
2022-10-30T12:17:40.979Z,6.47
2022-10-30T12:20:14.562Z,6.63
2022-10-30T12:22:42.787Z,6.80
2022-10-30T12:25:24.009Z,6.30
2022-10-30T12:27:59.330Z,6.82
2022-10-30T12:30:29.852Z,6.50
2022-10-30T12:33:01.833Z,7.03
2022-10-30T12:38:12.314Z,6.38
2022-10-30T12:40:46.556Z,5.90
2022-10-30T12:43:23.525Z,6.10
2022-10-30T12:45:54.642Z,6.05
2022-10-30T12:48:26.869Z,6.28
2022-10-30T12:53:33.560Z,6.63
2022-10-30T12:56:09.719Z,5.85
2022-10-30T12:58:45.753Z,6.35
2022-10-30T13:01:26.627Z,6.80
2022-10-30T13:04:00.308Z,6.45
2022-10-30T13:06:32.986Z,6.22
2022-10-30T13:09:10.673Z,6.43
2022-10-30T13:11:49.672Z,6.28
2022-10-30T13:14:21.165Z,6.38
2022-10-30T13:16:51.695Z,6.00
2022-10-30T13:19:19.567Z,7.07
2022-10-30T13:21:57.011Z,6.50
2022-10-30T13:24:33.943Z,6.93
2022-10-30T13:27:08.360Z,6.95
2022-10-30T13:29:45.477Z,6.95
2022-10-30T13:32:30.602Z,7.47
2022-10-30T13:35:15.796Z,6.78
2022-10-30T13:37:50.671Z,6.28
2022-10-30T13:40:26.644Z,6.30
2022-10-30T13:43:03.010Z,6.90
2022-10-30T13:45:56.975Z,7.18
2022-10-30T13:48:36.119Z,7.68
2022-10-30T13:51:19.319Z,7.38
2022-10-30T13:53:51.708Z,7.07
2022-10-30T13:56:21.954Z,6.93
2022-10-30T13:59:04.077Z,7.25
2022-10-30T14:01:36.890Z,7.97
2022-10-30T14:04:11.145Z,7.40
2022-10-30T14:06:48.794Z,7.45
2022-10-30T14:09:24.650Z,7.53
2022-10-30T14:11:54.300Z,8.65
2022-10-30T14:14:31.202Z,7.78
2022-10-30T14:17:16.318Z,7.65
2022-10-30T14:20:26.874Z,7.25
2022-10-30T14:23:14.447Z,7.18
2022-10-30T14:25:42.933Z,7.78
2022-10-30T14:28:21.230Z,8.25
2022-10-30T14:31:03.559Z,8.20
2022-10-30T14:36:17.768Z,8.77
2022-10-30T14:38:54.853Z,9.45
2022-10-30T14:41:49.372Z,10.07
2022-10-30T14:44:45.400Z,9.65
2022-10-30T14:47:48.589Z,10.93
2022-10-30T14:50:30.850Z,9.10
2022-10-30T14:53:11.534Z,9.30
2022-10-30T14:55:54.638Z,8.98
2022-10-30T14:58:26.157Z,8.75
2022-10-30T15:01:40.571Z,8.68
2022-10-30T15:04:18.364Z,7.97
2022-10-30T15:06:58.512Z,7.78
2022-10-30T15:09:38.692Z,7.53
2022-10-30T15:12:23.727Z,7.82
2022-10-30T15:14:56.386Z,8.25
2022-10-30T15:17:29.945Z,21.63
2022-10-30T15:20:02.126Z,8.95
2022-10-30T15:22:31.276Z,8.82
2022-10-30T15:24:59.643Z,8.93
2022-10-30T15:27:28.016Z,9.60
2022-10-30T15:29:59.417Z,8.52
2022-10-30T15:32:27.270Z,8.50
2022-10-30T15:34:57.845Z,8.23
2022-10-30T15:37:27.785Z,8.57
2022-10-30T15:40:20.176Z,8.68
2022-10-30T15:42:50.048Z,8.32
2022-10-30T15:45:20.499Z,8.95
2022-10-30T15:47:54.050Z,12.13
2022-10-30T15:50:21.855Z,14.10
2022-10-30T15:52:52.324Z,18.48
2022-10-30T15:55:25.136Z,23.08
2022-10-30T15:58:03.287Z,19.48
2022-10-30T16:00:34.447Z,17.02
2022-10-30T16:03:03.983Z,20.30
2022-10-30T16:05:32.673Z,17.38
2022-10-30T16:08:03.598Z,15.57
2022-10-30T16:10:34.685Z,16.17
2022-10-30T16:13:03.681Z,12.13
2022-10-30T16:15:34.874Z,11.57
2022-10-30T16:18:08.319Z,12.38
2022-10-30T16:20:37.257Z,10.68
2022-10-30T16:23:06.749Z,9.50
2022-10-30T16:25:37.393Z,9.45
2022-10-30T16:28:06.315Z,8.80
2022-10-30T16:30:35.300Z,9.00
2022-10-30T16:33:04.772Z,8.30
2022-10-30T16:35:32.612Z,8.93
2022-10-30T16:38:02.617Z,8.10
2022-10-30T16:40:32.623Z,8.45
2022-10-30T16:43:03.324Z,8.25
2022-10-30T16:45:47.451Z,8.88
2022-10-30T16:48:20.008Z,9.05
2022-10-30T16:50:48.438Z,9.10
2022-10-30T16:53:21.237Z,8.77
2022-10-30T16:55:52.898Z,9.27
2022-10-30T16:58:21.400Z,9.43
2022-10-30T17:00:53.806Z,15.05
2022-10-30T17:03:26.481Z,9.43
2022-10-30T17:06:00.311Z,8.65
2022-10-30T17:08:35.546Z,8.27
2022-10-30T17:11:06.978Z,8.48
2022-10-30T17:13:37.590Z,8.57
2022-10-30T17:16:25.511Z,9.40
2022-10-30T17:18:55.200Z,8.80
2022-10-30T17:21:26.237Z,10.60
2022-10-30T17:23:57.246Z,10.35
2022-10-30T17:26:27.695Z,10.63
2022-10-30T17:28:55.961Z,10.32
2022-10-30T17:31:29.591Z,10.23
2022-10-30T17:34:16.116Z,10.13
2022-10-30T17:36:44.473Z,11.20
2022-10-30T17:39:12.365Z,11.40
2022-10-30T17:41:44.196Z,11.40
2022-10-30T17:44:19.789Z,11.70
2022-10-30T17:46:47.611Z,12.32
2022-10-30T17:49:26.042Z,11.57
2022-10-30T17:51:54.300Z,12.45
2022-10-30T17:54:22.472Z,10.77
2022-10-30T17:56:52.657Z,11.95
2022-10-30T17:59:20.623Z,11.85
2022-10-30T18:01:49.198Z,11.18
2022-10-30T18:04:20.585Z,10.90
2022-10-30T18:06:49.041Z,10.55
2022-10-30T18:09:17.024Z,22.10
2022-10-30T18:11:45.120Z,13.50
2022-10-30T18:14:14.194Z,21.70
2022-10-30T18:16:41.938Z,17.30
2022-10-30T18:19:12.822Z,15.05
2022-10-30T18:21:42.469Z,14.50
2022-10-30T18:24:13.942Z,13.90
2022-10-30T18:26:42.303Z,13.90
2022-10-30T18:29:10.438Z,13.50
2022-10-30T18:31:40.405Z,10.27
2022-10-30T18:34:14.998Z,11.95
2022-10-30T18:36:42.868Z,15.65
2022-10-30T18:39:12.839Z,13.02
2022-10-30T18:41:43.290Z,12.20
2022-10-30T18:44:15.744Z,12.10
2022-10-30T18:46:45.660Z,14.00
2022-10-30T18:49:13.529Z,16.67
2022-10-30T18:51:41.678Z,14.93
2022-10-30T18:54:14.600Z,19.55
2022-10-30T18:56:42.695Z,16.77
2022-10-30T18:59:10.421Z,13.20
2022-10-30T19:01:38.294Z,12.50
2022-10-30T19:04:10.637Z,14.25
2022-10-30T19:06:38.888Z,12.75
2022-10-30T19:09:07.116Z,13.07
2022-10-30T19:11:38.246Z,13.15
2022-10-30T19:16:38.628Z,11.85
2022-10-30T19:19:06.384Z,12.15
2022-10-30T19:21:35.483Z,12.73
2022-10-30T19:24:03.637Z,13.02
2022-10-30T19:26:31.326Z,13.43
2022-10-30T19:28:59.013Z,13.02
2022-10-30T19:31:26.697Z,13.20
2022-10-30T19:33:57.430Z,12.77
2022-10-30T19:36:30.984Z,12.60
2022-10-30T19:39:05.780Z,12.85
2022-10-30T19:41:36.521Z,13.05
2022-10-30T19:44:04.393Z,11.25
2022-10-30T19:46:32.098Z,12.60
2022-10-30T19:49:00.462Z,11.55
2022-10-30T19:51:31.193Z,11.95
2022-10-30T19:54:00.269Z,12.10
2022-10-30T19:56:27.991Z,12.80
2022-10-30T19:58:55.629Z,11.70
2022-10-30T20:01:23.524Z,12.02
2022-10-30T20:03:51.326Z,12.98
2022-10-30T20:06:21.164Z,12.32
2022-10-30T20:08:48.918Z,12.20
2022-10-30T20:11:18.010Z,12.23
2022-10-30T20:13:47.065Z,13.60
2022-10-30T20:16:16.839Z,12.63
2022-10-30T20:18:44.594Z,12.15
2022-10-30T20:21:14.377Z,11.68
2022-10-30T20:23:42.127Z,14.20
2022-10-30T20:26:23.948Z,12.43
2022-10-30T20:28:52.471Z,13.13
2022-10-30T20:31:20.252Z,13.85
2022-10-30T20:33:48.123Z,12.40
2022-10-30T20:36:15.898Z,12.93
2022-10-30T20:38:43.642Z,12.93
2022-10-30T20:41:22.641Z,14.48
2022-10-30T20:43:51.055Z,12.32
2022-10-30T20:46:19.629Z,13.63
2022-10-30T20:48:47.551Z,14.13
2022-10-30T20:51:15.319Z,13.27
2022-10-30T20:53:43.117Z,12.98
2022-10-30T20:56:11.533Z,13.00
2022-10-30T20:58:42.084Z,14.20
2022-10-30T21:01:10.884Z,12.98
2022-10-30T21:03:38.724Z,14.32
2022-10-30T21:06:09.582Z,13.00
2022-10-30T21:08:37.379Z,13.65
2022-10-30T21:11:06.984Z,14.05
2022-10-30T21:13:35.291Z,12.60
2022-10-30T21:16:06.435Z,12.02
2022-10-30T21:18:34.138Z,12.93
2022-10-30T21:21:02.513Z,13.00
2022-10-30T21:23:30.388Z,14.50
2022-10-30T21:26:01.546Z,14.38
2022-10-30T21:28:29.271Z,12.38
2022-10-30T21:31:03.181Z,13.32
2022-10-30T21:33:39.454Z,12.93
2022-10-30T21:36:12.441Z,13.80
2022-10-30T21:38:42.757Z,13.02
2022-10-30T21:41:11.661Z,13.25
2022-10-30T21:43:39.501Z,13.90
2022-10-30T21:46:07.881Z,14.57
2022-10-30T21:48:37.026Z,15.25
2022-10-30T21:51:10.073Z,16.30
2022-10-30T21:53:37.998Z,14.43
2022-10-30T21:56:07.557Z,13.80
2022-10-30T21:58:35.528Z,15.30
2022-10-30T22:01:03.426Z,15.27
2022-10-30T22:03:31.936Z,14.80
2022-10-30T22:06:06.305Z,14.00
2022-10-30T22:08:33.975Z,14.10
2022-10-30T22:11:04.517Z,14.27
2022-10-30T22:13:32.176Z,14.23
2022-10-30T22:15:59.917Z,13.63
2022-10-30T22:18:28.249Z,15.98
2022-10-30T22:21:02.276Z,14.13
2022-10-30T22:23:30.167Z,13.70
2022-10-30T22:25:57.903Z,12.07
2022-10-30T22:28:25.625Z,13.15
2022-10-30T22:30:53.752Z,14.23
2022-10-30T22:33:22.477Z,12.88
2022-10-30T22:35:50.127Z,14.30
2022-10-30T22:38:19.128Z,14.70
2022-10-30T22:40:46.763Z,14.93
2022-10-30T22:43:14.598Z,15.02
2022-10-30T22:45:42.288Z,15.25
2022-10-30T22:48:09.909Z,15.30
2022-10-30T22:50:39.148Z,12.02
2022-10-30T22:53:06.767Z,14.88
2022-10-30T22:55:35.851Z,12.90
2022-10-30T22:58:03.777Z,15.18
2022-10-30T23:00:31.618Z,12.63
2022-10-30T23:03:00.250Z,14.18
2022-10-30T23:05:28.099Z,13.95
2022-10-30T23:07:55.753Z,13.13
2022-10-30T23:10:23.386Z,12.90
2022-10-30T23:12:52.919Z,13.20
2022-10-30T23:15:20.534Z,13.90
2022-10-30T23:17:49.677Z,13.00
2022-10-30T23:20:17.960Z,12.85
2022-10-30T23:22:45.596Z,13.32
2022-10-30T23:25:13.255Z,12.50
2022-10-30T23:27:40.896Z,10.60
2022-10-30T23:30:11.804Z,11.05
2022-10-30T23:32:39.434Z,12.88
2022-10-30T23:35:07.585Z,12.63
2022-10-30T23:37:35.202Z,11.38
2022-10-30T23:40:03.263Z,10.55
2022-10-30T23:42:30.955Z,13.35
2022-10-30T23:44:58.576Z,12.23
2022-10-30T23:47:27.568Z,12.13
2022-10-30T23:49:55.205Z,11.98
2022-10-30T23:52:22.816Z,11.30
2022-10-30T23:54:50.455Z,12.30
2022-10-30T23:57:18.141Z,11.48
2022-10-30T23:59:46.988Z,10.90
